Time;durP1;ratioP1;P1;durP2;ratioP2;P2;SDS_P1;SDS_P2;PMS_P1;PMS_P2;Temp;Humidity;BMP_temperature;BMP_pressure;BME280_temperature;BME280_humidity;BME280_pressure;Samples;Min_cycle;Max_cycle;Signal;HPM_P1;HPM_P2
2022/06/25 00:00:01;;;;;;;2.60;1.30;;;;;;;16.33;70.89;99630.81;5110926;28;20481;-49
2022/06/25 00:02:30;;;;;;;1.60;1.50;;;;;;;16.28;70.71;99630.75;5110738;28;20067;-48
2022/06/25 00:07:47;;;;;;;5.13;1.52;;;;;;;16.23;70.97;99645.03;5095656;28;20031;-49
2022/06/25 00:10:15;;;;;;;5.03;1.75;;;;;;;16.20;70.56;99637.44;5110023;27;20062;-49
2022/06/25 00:12:43;;;;;;;3.50;1.80;;;;;;;16.19;70.16;99650.13;5110348;28;20463;-49
2022/06/25 00:15:11;;;;;;;3.22;1.52;;;;;;;16.21;68.96;99649.88;5110970;28;20072;-49
2022/06/25 00:17:39;;;;;;;2.92;1.60;;;;;;;16.14;68.05;99636.53;5110477;28;20034;-50
2022/06/25 00:20:10;;;;;;;6.05;1.70;;;;;;;16.05;68.10;99654.28;5110735;28;20444;-52
2022/06/25 00:22:36;;;;;;;4.57;1.45;;;;;;;15.95;67.41;99652.25;5108946;28;20038;-49
2022/06/25 00:25:06;;;;;;;7.35;1.63;;;;;;;15.74;67.19;99653.84;5109250;28;20088;-52
2022/06/25 00:27:34;;;;;;;8.60;1.80;;;;;;;15.80;66.81;99666.38;5110195;28;20056;-52
2022/06/25 00:30:01;;;;;;;6.40;1.20;;;;;;;15.77;66.01;99660.66;5110022;28;20070;-50
2022/06/25 00:32:30;;;;;;;6.32;1.95;;;;;;;15.70;65.66;99678.94;5110308;28;20047;-48
2022/06/25 00:34:55;;;;;;;6.22;1.63;;;;;;;15.49;66.11;99674.00;5108704;28;20448;-49
2022/06/25 00:37:21;;;;;;;10.68;1.92;;;;;;;15.32;65.75;99650.69;5110326;28;20107;-48
2022/06/25 00:39:47;;;;;;;5.18;1.60;;;;;;;15.42;65.66;99665.22;5108707;28;20412;-49
2022/06/25 00:42:14;;;;;;;10.90;1.80;;;;;;;15.32;66.03;99670.44;5108781;28;20038;-48
2022/06/25 00:44:40;;;;;;;8.10;1.73;;;;;;;15.16;66.21;99666.66;5110529;28;20098;-49
2022/06/25 00:47:09;;;;;;;4.80;1.20;;;;;;;15.15;66.72;99688.53;5110330;28;20020;-48
2022/06/25 00:49:35;;;;;;;8.07;1.48;;;;;;;14.75;66.93;99641.59;5109697;28;20024;-48
2022/06/25 00:52:07;;;;;;;3.63;1.17;;;;;;;14.98;67.47;99691.22;5109665;28;20123;-48
2022/06/25 00:54:36;;;;;;;6.38;1.42;;;;;;;14.87;67.51;99676.69;5109606;28;20028;-49
2022/06/25 00:57:05;;;;;;;7.55;1.20;;;;;;;14.52;67.23;99627.09;5108017;28;20126;-48
2022/06/25 00:59:35;;;;;;;7.50;1.33;;;;;;;14.96;67.01;99701.44;5108248;28;20030;-49
2022/06/25 01:02:02;;;;;;;9.85;1.80;;;;;;;14.87;66.59;99687.50;5109695;28;20073;-49
2022/06/25 01:04:29;;;;;;;7.43;1.52;;;;;;;14.62;66.65;99650.81;5110117;28;20077;-48
2022/06/25 01:06:54;;;;;;;10.77;2.08;;;;;;;14.69;67.06;99685.78;5109739;28;20024;-47
2022/06/25 01:09:20;;;;;;;6.00;1.40;;;;;;;14.62;68.02;99704.03;5110034;28;20124;-48
2022/06/25 01:11:46;;;;;;;6.28;1.27;;;;;;;14.63;67.31;99703.78;5095452;28;20076;-49
2022/06/25 01:14:12;;;;;;;8.00;1.75;;;;;;;14.61;67.96;99713.19;5113829;28;20028;-50
2022/06/25 01:16:38;;;;;;;9.43;1.58;;;;;;;14.46;67.97;99705.56;5111693;28;20038;-47
2022/06/25 01:19:07;;;;;;;5.82;1.38;;;;;;;14.54;67.78;99713.28;5113412;28;20043;-49
2022/06/25 01:21:33;;;;;;;8.63;1.73;;;;;;;14.51;67.92;99711.88;5112209;28;20166;-47
2022/06/25 01:24:01;;;;;;;8.65;2.00;;;;;;;14.44;67.94;99713.88;5113264;28;20043;-48
2022/06/25 01:26:26;;;;;;;7.18;1.38;;;;;;;14.32;68.31;99702.31;5113948;28;20027;-51
2022/06/25 01:28:53;;;;;;;6.20;1.40;;;;;;;14.31;68.33;99712.25;5113663;28;20447;-47
2022/06/25 01:31:18;;;;;;;7.13;1.55;;;;;;;14.30;68.42;99716.03;5112510;28;20027;-48
2022/06/25 01:33:44;;;;;;;9.02;1.60;;;;;;;14.17;68.76;99705.50;5112245;28;20032;-47
2022/06/25 01:36:10;;;;;;;10.73;2.05;;;;;;;14.20;68.65;99715.81;5113627;28;20046;-48
2022/06/25 01:38:35;;;;;;;6.18;1.52;;;;;;;14.13;68.65;99710.53;5113336;28;20404;-48
2022/06/25 01:41:01;;;;;;;6.32;1.40;;;;;;;14.15;69.11;99726.47;5113710;27;20050;-48
2022/06/25 01:43:27;;;;;;;6.63;1.80;;;;;;;14.14;68.95;99716.75;5112833;28;20107;-49
2022/06/25 01:45:52;;;;;;;6.70;1.60;;;;;;;14.14;68.77;99716.75;5113094;28;20032;-48
2022/06/25 01:48:18;;;;;;;3.17;1.10;;;;;;;14.20;68.21;99715.81;5113042;28;20055;-50
2022/06/25 01:50:44;;;;;;;4.40;1.65;;;;;;;14.17;68.26;99726.25;5112161;28;20126;-53
2022/06/25 01:53:10;;;;;;;9.45;1.80;;;;;;;13.99;68.92;99733.41;5094470;28;20122;-53
2022/06/25 01:55:36;;;;;;;3.30;1.40;;;;;;;13.98;68.62;99722.84;5112998;28;20110;-49
2022/06/25 01:58:02;;;;;;;5.18;1.25;;;;;;;14.00;68.62;99736.94;5113363;28;20519;-51
2022/06/25 02:00:30;;;;;;;4.88;1.27;;;;;;;13.92;68.70;99728.13;5112940;28;20027;-50
2022/06/25 02:02:56;;;;;;;7.85;1.27;;;;;;;13.90;68.78;99716.75;5112656;28;20031;-48
2022/06/25 02:08:13;;;;;;;11.27;1.65;;;;;;;13.79;69.90;99739.16;5111367;28;20023;-48
2022/06/25 02:10:40;;;;;;;8.55;1.52;;;;;;;13.72;69.52;99724.94;5112531;28;20048;-50
2022/06/25 02:13:06;;;;;;;7.80;1.33;;;;;;;13.62;69.58;99730.09;5112317;28;20099;-48
2022/06/25 02:15:32;;;;;;;4.80;1.23;;;;;;;13.74;69.08;99761.44;5112696;28;20031;-50
2022/06/25 02:17:59;;;;;;;8.88;1.50;;;;;;;13.65;68.90;99743.94;5112521;28;20031;-49
2022/06/25 02:20:25;;;;;;;11.38;1.60;;;;;;;13.61;69.40;99761.63;5112344;28;20149;-48
2022/06/25 02:22:51;;;;;;;5.47;1.27;;;;;;;13.68;68.90;99762.34;5112374;28;20107;-48
2022/06/25 02:25:17;;;;;;;9.73;1.55;;;;;;;13.35;68.49;99703.50;5112102;28;20044;-50
2022/06/25 02:27:42;;;;;;;9.27;1.65;;;;;;;13.56;69.22;99753.44;5112316;28;20503;-50
2022/06/25 02:30:08;;;;;;;5.93;1.58;;;;;;;13.56;69.42;99769.63;5111059;28;20067;-48
2022/06/25 02:32:34;;;;;;;8.27;1.30;;;;;;;13.45;69.26;99756.91;5110964;28;20129;-48
2022/06/25 02:35:00;;;;;;;5.30;1.23;;;;;;;13.48;68.95;99751.03;5112248;28;20036;-49
2022/06/25 02:37:26;;;;;;;6.40;1.63;;;;;;;13.54;68.83;99777.94;5112441;28;20075;-48
2022/06/25 02:39:52;;;;;;;3.90;0.90;;;;;;;13.53;69.00;99778.97;5112686;28;20110;-49
2022/06/25 02:42:17;;;;;;;9.00;1.33;;;;;;;13.39;69.88;99782.09;5112486;28;20024;-50
2022/06/25 02:44:43;;;;;;;9.93;1.70;;;;;;;13.41;69.65;99788.06;5110371;28;20400;-49
2022/06/25 02:47:09;;;;;;;5.15;0.95;;;;;;;13.26;69.46;99765.03;5111671;28;20027;-48
2022/06/25 02:49:34;;;;;;;5.53;1.15;;;;;;;13.38;69.22;99775.06;5110287;28;20028;-49
2022/06/25 02:52:00;;;;;;;6.22;1.27;;;;;;;13.31;69.85;99778.66;5110190;28;20384;-50
2022/06/25 02:54:26;;;;;;;7.07;1.95;;;;;;;13.26;70.47;99792.00;5111639;28;20058;-52
2022/06/25 02:59:42;;;;;;;6.97;1.48;;;;;;;13.22;70.61;99785.38;5110344;28;20024;-50
2022/06/25 03:02:07;;;;;;;4.72;1.15;;;;;;;13.03;70.06;99762.22;5111979;28;20027;-48
2022/06/25 03:04:33;;;;;;;5.32;1.00;;;;;;;12.78;70.53;99728.13;5110511;28;20368;-50
2022/06/25 03:06:59;;;;;;;4.45;1.10;;;;;;;12.98;71.06;99784.44;5111811;28;20032;-51
2022/06/25 03:09:25;;;;;;;4.78;1.13;;;;;;;13.07;70.83;99793.06;5111657;28;20070;-48
2022/06/25 03:11:51;;;;;;;5.63;1.23;;;;;;;12.99;71.51;99786.09;5111590;28;20032;-49
2022/06/25 03:14:17;;;;;;;8.05;1.38;;;;;;;13.03;70.90;99800.78;5110063;28;20046;-48
2022/06/25 03:16:43;;;;;;;11.05;1.60;;;;;;;13.02;71.36;99801.00;5111601;28;20067;-48
2022/06/25 03:19:09;;;;;;;7.95;1.73;;;;;;;13.04;70.99;99809.66;5109967;28;20173;-49
2022/06/25 03:21:35;;;;;;;7.63;1.17;;;;;;;12.97;71.07;99799.81;5111767;28;20384;-49
2022/06/25 03:24:02;;;;;;;5.40;1.35;;;;;;;12.93;71.23;99803.19;5110477;28;20107;-50
2022/06/25 03:26:28;;;;;;;4.78;1.10;;;;;;;12.87;71.57;99804.06;5112078;28;20413;-50
2022/06/25 03:28:54;;;;;;;8.57;1.20;;;;;;;12.81;71.97;99811.19;5110260;28;20063;-52
2022/06/25 03:31:21;;;;;;;7.50;1.30;;;;;;;12.72;72.25;99812.53;5109806;28;20106;-53
2022/06/25 03:33:48;;;;;;;7.15;1.40;;;;;;;12.63;72.70;99798.56;5110514;28;20033;-51
2022/06/25 03:36:13;;;;;;;6.75;1.40;;;;;;;12.77;72.13;99820.78;5109647;28;20027;-51
2022/06/25 03:38:39;;;;;;;6.93;1.33;;;;;;;12.71;72.28;99817.09;5110727;28;20031;-49
2022/06/25 03:43:50;;;;;;;8.30;0.90;;;;;;;12.47;73.04;99799.13;5109933;28;20039;-53
2022/06/25 03:46:16;;;;;;;5.88;1.25;;;;;;;12.56;73.08;99822.03;5111258;28;20076;-53
2022/06/25 03:48:42;;;;;;;5.38;1.80;;;;;;;12.56;72.88;99825.53;5109491;28;20358;-50
2022/06/25 03:51:08;;;;;;;6.45;1.23;;;;;;;12.52;73.56;99828.91;5110652;28;20104;-53
2022/06/25 03:53:34;;;;;;;6.47;1.23;;;;;;;12.49;72.56;99814.00;5110932;28;20063;-51
2022/06/25 03:55:59;;;;;;;9.18;1.75;;;;;;;12.47;72.54;99818.78;5111079;28;20027;-49
2022/06/25 03:58:25;;;;;;;7.32;1.38;;;;;;;12.53;73.11;99831.38;5110910;28;20023;-49
2022/06/25 04:00:51;;;;;;;7.05;2.03;;;;;;;12.57;73.20;99840.66;5111739;28;20444;-51
2022/06/25 04:03:17;;;;;;;10.07;1.63;;;;;;;12.46;73.02;99830.63;5112577;28;20062;-50
2022/06/25 04:05:42;;;;;;;8.75;1.48;;;;;;;12.19;73.92;99812.00;5111030;28;20390;-49
2022/06/25 04:08:08;;;;;;;6.53;1.05;;;;;;;12.31;74.30;99830.97;5111533;28;20078;-50
2022/06/25 04:10:34;;;;;;;7.88;1.50;;;;;;;12.25;74.04;99821.06;5093073;28;20074;-49
2022/06/25 04:13:00;;;;;;;9.55;1.88;;;;;;;12.27;74.79;99840.50;5112614;28;20350;-52
2022/06/25 04:15:25;;;;;;;9.02;1.40;;;;;;;12.25;75.43;99844.47;5112273;28;20037;-50
2022/06/25 04:17:51;;;;;;;8.85;1.48;;;;;;;12.32;74.66;99847.94;5111823;28;20085;-49
2022/06/25 04:20:17;;;;;;;10.52;1.63;;;;;;;12.26;74.78;99843.41;5112276;28;20032;-51
2022/06/25 04:22:43;;;;;;;6.78;1.50;;;;;;;12.31;75.20;99854.34;5112921;28;20030;-51
2022/06/25 04:25:08;;;;;;;8.55;1.50;;;;;;;12.28;74.55;99844.88;5110490;28;20108;-51
2022/06/25 04:30:20;;;;;;;15.57;1.73;;;;;;;12.32;75.11;99870.28;5109088;28;20069;-51
2022/06/25 04:32:46;;;;;;;8.02;1.42;;;;;;;12.40;74.26;99874.56;5108937;28;20379;-53
2022/06/25 04:35:12;;;;;;;11.52;2.75;;;;;;;12.36;74.60;99874.19;5110585;28;20049;-52
2022/06/25 04:37:37;;;;;;;10.85;1.35;;;;;;;12.27;74.83;99856.66;5111146;28;20031;-49
2022/06/25 04:40:04;;;;;;;8.90;1.58;;;;;;;12.34;74.69;99862.00;5110331;28;20409;-48
2022/06/25 04:42:30;;;;;;;9.50;1.40;;;;;;;12.38;75.05;99882.06;5110397;28;20357;-48
2022/06/25 04:44:55;;;;;;;8.40;1.40;;;;;;;12.22;75.22;99872.69;5108992;28;20126;-49
2022/06/25 04:47:21;;;;;;;9.18;1.55;;;;;;;12.28;75.04;99885.25;5108725;28;20027;-52
2022/06/25 04:49:48;;;;;;;5.43;1.80;;;;;;;12.29;75.36;99889.56;5110021;28;20055;-49
2022/06/25 04:52:13;;;;;;;8.00;1.20;;;;;;;12.36;74.08;99890.34;5110549;28;20202;-50
2022/06/25 04:54:39;;;;;;;10.55;1.73;;;;;;;12.46;73.91;99911.41;5110205;28;20390;-53
2022/06/25 04:57:05;;;;;;;9.45;1.67;;;;;;;12.35;74.27;99893.25;5110119;28;20076;-52
2022/06/25 04:59:31;;;;;;;5.93;1.30;;;;;;;12.35;74.05;99912.09;5109948;28;20041;-53
2022/06/25 05:01:57;;;;;;;8.20;1.30;;;;;;;12.36;73.66;99917.28;5091963;28;20102;-54
2022/06/25 05:04:22;;;;;;;8.35;1.35;;;;;;;12.28;74.21;99909.47;5110300;28;20032;-51
2022/06/25 05:06:48;;;;;;;7.93;1.50;;;;;;;12.36;74.42;99921.84;5110331;28;20020;-49
2022/06/25 05:09:14;;;;;;;10.55;1.48;;;;;;;12.37;73.64;99923.50;5109682;28;20123;-52
2022/06/25 05:11:40;;;;;;;11.90;1.55;;;;;;;12.37;73.20;99910.03;5110356;28;20024;-48
2022/06/25 05:14:06;;;;;;;3.28;1.00;;;;;;;12.47;72.99;99931.09;5110100;28;20076;-52
2022/06/25 05:16:32;;;;;;;6.55;1.17;;;;;;;12.50;73.45;99938.72;5109527;28;20036;-48
2022/06/25 05:18:58;;;;;;;12.95;1.30;;;;;;;12.44;73.24;99931.53;5110215;28;20183;-53
2022/06/25 05:21:23;;;;;;;8.52;2.00;;;;;;;12.50;73.51;99942.25;5109822;28;20031;-48
2022/06/25 05:23:49;;;;;;;3.85;1.23;;;;;;;12.57;73.18;99936.78;5109822;28;20031;-49
2022/06/25 05:26:15;;;;;;;14.35;1.60;;;;;;;12.58;73.27;99951.94;5109700;28;20032;-49
2022/06/25 05:28:40;;;;;;;7.72;1.20;;;;;;;12.64;72.96;99951.03;5109489;28;20030;-49
2022/06/25 05:31:07;;;;;;;6.15;1.20;;;;;;;12.51;72.83;99927.72;5110133;28;20099;-52
2022/06/25 05:33:33;;;;;;;6.18;1.17;;;;;;;12.66;72.24;99946.25;5108022;28;20027;-50
2022/06/25 05:35:58;;;;;;;6.75;1.23;;;;;;;12.42;71.94;99895.91;5108002;28;20039;-50
2022/06/25 05:38:24;;;;;;;10.85;1.50;;;;;;;12.66;72.48;99948.94;5109749;28;20031;-51
2022/06/25 05:40:50;;;;;;;6.57;1.67;;;;;;;12.84;72.45;99968.91;5108073;28;20072;-49
2022/06/25 05:43:15;;;;;;;10.05;1.85;;;;;;;12.79;72.40;99974.97;5109344;28;20081;-48
2022/06/25 05:45:41;;;;;;;9.98;1.98;;;;;;;12.74;72.86;99962.16;5108608;28;20027;-48
2022/06/25 05:48:07;;;;;;;8.48;1.60;;;;;;;12.82;72.94;99966.44;5109789;28;20020;-47
2022/06/25 05:50:33;;;;;;;7.72;1.02;;;;;;;12.84;73.03;99968.91;5107940;28;20066;-48
2022/06/25 05:52:59;;;;;;;11.25;1.58;;;;;;;12.76;72.48;99954.69;5109386;28;20059;-48
2022/06/25 05:55:25;;;;;;;13.10;1.67;;;;;;;12.88;73.53;99968.25;5109904;28;20059;-50
2022/06/25 05:57:51;;;;;;;7.72;1.75;;;;;;;12.85;73.97;99974.09;5112787;28;20024;-48
2022/06/25 06:00:18;;;;;;;12.50;1.45;;;;;;;12.90;73.28;99978.81;5112764;28;20035;-48
2022/06/25 06:02:44;;;;;;;14.18;1.83;;;;;;;12.92;73.66;99974.00;5112811;28;20111;-48
2022/06/25 06:05:10;;;;;;;7.10;1.55;;;;;;;12.93;73.50;99970.28;5113002;28;20035;-49
2022/06/25 06:07:36;;;;;;;6.93;1.70;;;;;;;12.97;73.71;99974.19;5112022;28;20027;-49
2022/06/25 06:10:03;;;;;;;13.65;1.95;;;;;;;13.00;73.38;99976.44;5111958;28;20048;-48
2022/06/25 06:12:29;;;;;;;13.15;2.35;;;;;;;12.91;73.85;99975.91;5094223;28;20030;-52
2022/06/25 06:14:55;;;;;;;7.63;2.08;;;;;;;13.03;73.29;99985.94;5112809;28;20039;-48
2022/06/25 06:17:21;;;;;;;9.73;1.50;;;;;;;12.97;74.06;99987.66;5112566;28;20479;-49
2022/06/25 06:19:47;;;;;;;16.33;1.90;;;;;;;13.02;73.69;99979.75;5112978;28;20087;-47
2022/06/25 06:22:12;;;;;;;11.88;2.03;;;;;;;13.09;73.64;99995.84;5112556;28;20111;-46
2022/06/25 06:24:38;;;;;;;8.30;1.40;;;;;;;13.09;73.53;99985.06;5111320;28;20139;-48
2022/06/25 06:27:04;;;;;;;10.60;1.88;;;;;;;13.17;73.63;99992.88;5112668;28;20356;-48
2022/06/25 06:29:30;;;;;;;15.23;2.03;;;;;;;13.21;73.75;99994.06;5112900;27;20179;-48
2022/06/25 06:31:56;;;;;;;12.30;1.63;;;;;;;13.27;73.56;100001.25;5112986;28;20031;-52
2022/06/25 06:34:22;;;;;;;10.57;1.63;;;;;;;13.31;73.78;100005.19;5112784;28;20036;-49
2022/06/25 06:36:47;;;;;;;8.77;1.75;;;;;;;13.36;73.31;100015.31;5112770;28;20035;-52
2022/06/25 06:39:13;;;;;;;9.27;1.67;;;;;;;13.32;73.59;100009.53;5112994;28;20038;-49
2022/06/25 06:41:39;;;;;;;10.30;1.92;;;;;;;13.42;72.46;100017.13;5112340;28;20118;-48
2022/06/25 06:44:04;;;;;;;11.25;1.63;;;;;;;13.54;71.77;100015.34;5112420;28;20031;-48
2022/06/25 06:46:30;;;;;;;12.35;2.08;;;;;;;13.62;71.29;100026.88;5112115;28;20112;-50
2022/06/25 06:48:56;;;;;;;9.80;1.88;;;;;;;13.70;70.79;100026.56;5111807;28;20141;-49
2022/06/25 06:51:22;;;;;;;8.75;1.70;;;;;;;13.79;70.74;100033.31;5112391;28;20360;-48
2022/06/25 06:53:47;;;;;;;12.20;2.22;;;;;;;13.80;70.03;100008.00;5112447;28;20038;-50
2022/06/25 06:56:13;;;;;;;16.33;2.08;;;;;;;13.98;69.27;100009.00;5112833;28;20081;-51
2022/06/25 06:58:39;;;;;;;5.97;1.35;;;;;;;14.09;68.98;100005.53;5112414;28;20028;-48
2022/06/25 07:01:05;;;;;;;11.82;1.80;;;;;;;14.43;67.63;100032.91;5111897;28;20121;-48
2022/06/25 07:03:30;;;;;;;15.43;2.58;;;;;;;14.46;67.19;100019.78;5111688;28;20122;-50
2022/06/25 07:05:56;;;;;;;12.25;2.50;;;;;;;14.48;67.36;100027.66;5111536;28;20045;-47
2022/06/25 07:08:22;;;;;;;10.98;1.95;;;;;;;14.66;67.28;100030.31;5110758;28;20077;-50
2022/06/25 07:10:48;;;;;;;13.70;2.22;;;;;;;14.67;67.07;100021.16;5112131;28;20046;-49
2022/06/25 07:13:14;;;;;;;9.38;1.58;;;;;;;14.56;66.61;99975.16;5112198;28;20433;-49
2022/06/25 07:15:40;;;;;;;8.88;1.95;;;;;;;14.95;65.98;100018.84;5111814;28;20050;-48
2022/06/25 07:18:06;;;;;;;10.55;1.95;;;;;;;15.05;65.35;100024.50;5111933;28;20032;-48
2022/06/25 07:20:32;;;;;;;13.10;1.88;;;;;;;15.10;65.01;100033.56;5109920;28;20434;-50
2022/06/25 07:22:58;;;;;;;9.57;2.22;;;;;;;15.22;64.36;100030.84;5110132;28;20031;-51
2022/06/25 07:25:23;;;;;;;13.35;2.30;;;;;;;15.28;63.55;100031.81;5110320;28;20054;-47
2022/06/25 07:27:49;;;;;;;7.93;1.92;;;;;;;15.34;63.52;100025.47;5111938;28;20077;-49
2022/06/25 07:30:15;;;;;;;10.80;2.45;;;;;;;15.55;62.76;100029.44;5109893;28;20027;-48
2022/06/25 07:32:41;;;;;;;8.60;1.60;;;;;;;15.65;61.90;100035.06;5109682;28;20366;-50
2022/06/25 07:35:07;;;;;;;11.38;2.35;;;;;;;15.47;62.21;100010.84;5111300;28;20028;-52
2022/06/25 07:37:34;;;;;;;12.73;1.65;;;;;;;15.59;60.97;100035.22;5111314;28;20049;-50
2022/06/25 07:40:00;;;;;;;9.70;1.98;;;;;;;15.60;60.49;100037.69;5111511;28;20036;-48
2022/06/25 07:42:26;;;;;;;13.52;2.25;;;;;;;15.71;59.66;100040.59;5109871;28;20106;-48
2022/06/25 07:44:52;;;;;;;13.18;2.33;;;;;;;15.72;59.45;100029.53;5111699;28;20062;-48
2022/06/25 07:47:18;;;;;;;10.88;2.67;;;;;;;15.72;59.39;100032.25;5111786;28;20028;-47
2022/06/25 07:52:29;;;;;;;8.60;1.90;;;;;;;15.62;59.80;100038.25;5110125;28;20019;-50
2022/06/25 07:54:55;;;;;;;8.93;2.08;;;;;;;15.71;59.93;100038.69;5111516;28;20028;-47
2022/06/25 07:57:21;;;;;;;15.23;2.33;;;;;;;16.13;58.44;100024.97;5112029;28;20147;-48
2022/06/25 07:59:47;;;;;;;13.38;2.20;;;;;;;16.42;57.80;100022.28;5111441;28;20088;-49
2022/06/25 08:02:12;;;;;;;19.65;2.63;;;;;;;16.42;57.27;100025.81;5110082;28;20028;-48
2022/06/25 08:04:38;;;;;;;12.60;2.15;;;;;;;16.63;56.69;100029.69;5110290;28;20038;-47
2022/06/25 08:07:04;;;;;;;10.20;2.28;;;;;;;16.63;56.42;100029.69;5075798;28;20080;-52
2022/06/25 08:09:30;;;;;;;10.75;1.90;;;;;;;16.65;56.42;100030.25;5110609;28;20047;-47
2022/06/25 08:11:56;;;;;;;8.63;2.13;;;;;;;16.89;55.72;100023.91;5110957;28;20031;-51
2022/06/25 08:14:21;;;;;;;11.27;2.65;;;;;;;17.32;54.09;100020.50;5110915;28;20031;-51
2022/06/25 08:16:47;;;;;;;11.32;2.40;;;;;;;18.02;52.85;100033.69;5110553;28;20035;-51
2022/06/25 08:19:13;;;;;;;10.27;2.40;;;;;;;18.50;50.89;100013.81;5110401;28;20054;-49
2022/06/25 08:21:38;;;;;;;11.43;2.50;;;;;;;19.62;49.88;100036.72;5092737;28;20032;-48
2022/06/25 08:24:05;;;;;;;14.85;2.78;;;;;;;19.64;48.15;100027.19;5111419;28;20031;-48
2022/06/25 08:26:31;;;;;;;9.10;2.15;;;;;;;19.80;47.05;100013.66;5110957;28;20468;-50
2022/06/25 08:28:56;;;;;;;10.20;1.80;;;;;;;20.40;46.06;99997.78;5092443;28;20129;-49
2022/06/25 08:31:24;;;;;;;12.40;2.15;;;;;;;21.08;45.00;100012.00;5111335;28;20023;-50
2022/06/25 08:33:49;;;;;;;9.73;2.35;;;;;;;19.69;46.59;100034.59;5092793;28;20038;-48
2022/06/25 08:36:15;;;;;;;8.05;2.25;;;;;;;20.31;44.70;100024.75;5110817;28;20027;-50
2022/06/25 08:38:41;;;;;;;5.68;1.75;;;;;;;20.39;46.18;100010.59;5108987;28;20036;-50
2022/06/25 08:41:08;;;;;;;11.75;1.98;;;;;;;21.50;41.54;100020.97;5110744;28;20031;-52
2022/06/25 08:43:34;;;;;;;9.25;2.08;;;;;;;22.06;42.27;100027.31;5110584;28;20028;-48
2022/06/25 08:45:59;;;;;;;9.88;2.55;;;;;;;21.89;42.15;100019.47;5110717;28;20485;-48
2022/06/25 08:48:31;;;;;;;9.65;2.35;;;;;;;20.64;43.04;100037.13;5109127;28;20115;-48
2022/06/25 08:50:57;;;;;;;8.43;2.05;;;;;;;22.00;39.60;100021.88;5109162;28;20100;-48
2022/06/25 08:53:24;;;;;;;7.90;1.95;;;;;;;21.90;40.24;100011.00;5108849;28;20440;-53
2022/06/25 08:55:50;;;;;;;9.10;2.33;;;;;;;23.00;40.11;100019.88;5110215;28;20027;-48
2022/06/25 08:58:17;;;;;;;7.18;1.95;;;;;;;23.54;39.42;100031.69;5110208;28;20035;-52
2022/06/25 09:00:45;;;;;;;7.50;1.85;;;;;;;22.71;39.33;100024.50;5110455;28;20142;-53
2022/06/25 09:03:11;;;;;;;7.28;2.03;;;;;;;21.68;41.56;100033.22;5110099;28;20027;-52
2022/06/25 09:05:40;;;;;;;5.68;1.60;;;;;;;21.12;41.86;100042.31;5108350;28;20031;-50
2022/06/25 09:08:08;;;;;;;8.13;2.15;;;;;;;21.22;42.24;100046.94;5108877;28;20034;-50
2022/06/25 09:10:35;;;;;;;8.70;1.95;;;;;;;21.35;41.60;100045.56;5109904;28;20043;-50
2022/06/25 09:13:03;;;;;;;13.60;2.10;;;;;;;20.76;43.62;100044.22;5110310;28;20031;-49
2022/06/25 09:15:33;;;;;;;7.18;2.25;;;;;;;20.17;43.11;100034.53;5110005;28;20440;-50
2022/06/25 09:18:14;;;;;;;9.38;2.17;;;;;;;19.50;44.15;100047.81;5108423;28;20042;-49
2022/06/25 09:21:01;;;;;;;6.20;2.05;;;;;;;19.07;44.72;100044.25;5110373;28;20103;-49
2022/06/25 09:23:28;;;;;;;11.25;2.13;;;;;;;18.57;46.71;100002.72;5095224;28;20054;-51
2022/06/25 09:26:06;;;;;;;7.07;2.17;;;;;;;21.44;41.21;100038.44;5108626;28;20433;-48
2022/06/25 09:28:34;;;;;;;9.35;2.35;;;;;;;22.96;38.79;100031.69;5110548;28;20032;-49
2022/06/25 09:31:02;;;;;;;8.07;2.03;;;;;;;22.77;40.48;100017.84;5111913;28;20043;-48
2022/06/25 09:33:29;;;;;;;12.23;2.20;;;;;;;22.46;40.15;100020.03;5114338;28;20086;-49
2022/06/25 09:35:55;;;;;;;5.80;2.50;;;;;;;23.83;38.39;100013.56;5114204;28;20039;-49
2022/06/25 09:38:21;;;;;;;9.60;2.33;;;;;;;24.86;35.42;100019.25;5113781;28;20042;-48
2022/06/25 09:40:51;;;;;;;10.93;2.17;;;;;;;25.47;34.90;100020.09;5113917;27;20058;-48
2022/06/25 09:43:19;;;;;;;7.80;2.03;;;;;;;23.96;37.10;100023.84;5113547;28;20036;-51
2022/06/25 09:45:49;;;;;;;5.72;2.20;;;;;;;24.62;35.05;100004.81;5111906;28;20182;-49
2022/06/25 09:48:20;;;;;;;12.43;2.22;;;;;;;25.29;35.80;100013.56;5112234;28;20501;-49
2022/06/25 09:51:13;;;;;;;7.13;2.45;;;;;;;25.14;33.74;100000.09;5113926;28;20036;-48
2022/06/25 09:53:59;;;;;;;5.70;2.20;;;;;;;24.09;33.33;100014.88;5112447;28;20062;-47
2022/06/25 09:56:30;;;;;;;6.30;1.83;;;;;;;24.30;31.62;100009.91;5112333;28;20406;-49
2022/06/25 09:58:56;;;;;;;6.18;2.10;;;;;;;25.53;30.31;100009.81;5112262;28;20031;-48
2022/06/25 10:01:25;;;;;;;5.70;1.88;;;;;;;25.76;27.85;99999.75;5113642;28;20058;-48
2022/06/25 10:03:51;;;;;;;3.38;1.67;;;;;;;25.66;28.84;100002.69;5112286;28;20076;-49
2022/06/25 10:06:19;;;;;;;6.75;2.25;;;;;;;26.20;27.89;100005.72;5095349;28;20072;-48
2022/06/25 10:08:49;;;;;;;5.70;1.45;;;;;;;26.67;27.87;99998.03;5113428;27;20027;-49
2022/06/25 10:11:18;;;;;;;5.57;1.75;;;;;;;25.56;28.10;100009.22;5113244;28;20388;-48
2022/06/25 10:13:45;;;;;;;6.20;1.88;;;;;;;26.22;29.44;99998.75;5094400;28;20063;-50
2022/06/25 10:16:11;;;;;;;4.35;1.80;;;;;;;27.29;27.70;99982.69;5113031;27;20122;-52
2022/06/25 10:18:36;;;;;;;5.93;2.10;;;;;;;28.17;25.99;99993.66;5111969;28;20110;-50
2022/06/25 10:21:03;;;;;;;6.97;1.88;;;;;;;28.73;26.86;99987.47;5111684;28;20105;-51
2022/06/25 10:23:29;;;;;;;8.65;2.20;;;;;;;29.23;25.58;99986.09;5113300;28;20412;-50
2022/06/25 10:25:56;;;;;;;6.95;2.40;;;;;;;28.97;26.18;99981.41;5112782;28;20043;-49
2022/06/25 10:28:28;;;;;;;4.53;2.00;;;;;;;28.51;23.80;99980.16;5111117;28;20051;-49
2022/06/25 10:30:57;;;;;;;4.95;1.80;;;;;;;27.91;25.94;99979.81;5112988;27;20065;-49
2022/06/25 10:33:26;;;;;;;7.45;2.20;;;;;;;27.75;26.16;99989.69;5112987;27;20499;-49
2022/06/25 10:35:55;;;;;;;6.50;1.65;;;;;;;28.09;27.32;99983.41;5111244;28;20038;-50
2022/06/25 10:38:23;;;;;;;7.32;1.90;;;;;;;28.18;25.29;99947.53;5111204;28;20028;-53
2022/06/25 10:40:59;;;;;;;5.88;1.95;;;;;;;28.24;24.00;99995.94;5112423;28;20054;-50
2022/06/25 10:43:46;;;;;;;4.20;1.75;;;;;;;29.37;22.71;99981.16;5112010;28;20057;-50
2022/06/25 10:46:22;;;;;;;9.35;1.65;;;;;;;30.33;21.82;99975.09;5080020;28;20039;-51
2022/06/25 10:48:52;;;;;;;23.42;2.10;;;;;;;30.54;24.55;99971.47;5111455;28;20106;-48
2022/06/25 10:51:42;;;;;;;5.25;2.22;;;;;;;30.98;22.45;99969.06;5112532;28;20123;-48
2022/06/25 10:54:33;;;;;;;6.60;1.73;;;;;;;30.44;20.80;99961.59;5111146;28;20042;-49
2022/06/25 10:57:00;;;;;;;7.25;2.22;;;;;;;30.02;23.42;99973.47;5111139;28;20472;-51
2022/06/25 10:59:45;;;;;;;10.13;2.20;;;;;;;29.81;22.48;99979.00;5111976;28;20027;-49
2022/06/25 11:02:13;;;;;;;6.47;1.77;;;;;;;29.59;24.44;99973.72;5112056;28;20064;-49
2022/06/25 11:04:49;;;;;;;8.55;2.10;;;;;;;29.73;22.88;99974.28;5112348;28;20032;-48
2022/06/25 11:07:18;;;;;;;6.32;1.90;;;;;;;29.21;24.33;99978.13;5112865;27;20107;-49
2022/06/25 11:09:57;;;;;;;5.18;1.88;;;;;;;29.60;22.17;99945.72;5110649;28;20048;-48
2022/06/25 11:12:25;;;;;;;8.45;1.90;;;;;;;30.81;22.54;99975.59;5112292;28;20039;-49
2022/06/25 11:15:01;;;;;;;7.03;2.28;;;;;;;30.87;21.24;99972.25;5112199;27;20019;-51
2022/06/25 11:17:27;;;;;;;9.07;2.20;;;;;;;30.21;22.15;99978.53;5112141;28;20056;-49
2022/06/25 11:19:54;;;;;;;3.95;1.83;;;;;;;28.91;23.11;99969.72;5110138;28;20031;-51
2022/06/25 11:22:20;;;;;;;4.28;2.08;;;;;;;27.59;25.44;99978.25;5111659;28;20028;-48
2022/06/25 11:30:20;;;;;;;6.32;2.15;;;;;;;25.78;25.67;99985.66;5110330;28;20127;-50
2022/06/25 11:32:46;;;;;;;5.15;2.22;;;;;;;25.04;27.61;99983.78;5111821;28;20503;-47
2022/06/25 11:35:12;;;;;;;6.45;2.05;;;;;;;24.86;28.04;99985.47;5111972;28;20059;-50
2022/06/25 11:37:38;;;;;;;6.47;2.13;;;;;;;25.03;28.30;99979.41;5111582;28;20146;-51
2022/06/25 11:40:13;;;;;;;5.75;1.98;;;;;;;25.05;26.70;99993.66;5111541;28;20031;-52
2022/06/25 11:42:39;;;;;;;10.02;2.10;;;;;;;24.26;28.77;100003.41;5112316;28;20047;-51
2022/06/25 11:45:06;;;;;;;6.40;2.10;;;;;;;24.12;29.66;100011.53;5112635;28;20031;-48
2022/06/25 11:47:32;;;;;;;5.25;2.22;;;;;;;24.34;29.75;100015.63;5111590;28;20031;-48
2022/06/25 11:49:58;;;;;;;5.88;2.33;;;;;;;24.26;29.79;100019.88;5110048;28;20024;-50